sensor_id;sensor_type;location;lat;lon;timestamp;pressure;altitude;pressure_sealevel;temperature;humidity
38912;BME280;28444;48.056;14.408;2023-11-22T00:00:59;97591.78;;;6.36;100.00
38912;BME280;28444;48.056;14.408;2023-11-22T00:03:25;97582.56;;;6.39;100.00
38912;BME280;28444;48.056;14.408;2023-11-22T00:05:52;97593.44;;;6.39;100.00
38912;BME280;28444;48.056;14.408;2023-11-22T00:08:19;97588.19;;;6.41;100.00
38912;BME280;28444;48.056;14.408;2023-11-22T00:10:45;97588.97;;;6.49;100.00
38912;BME280;28444;48.056;14.408;2023-11-22T00:13:12;97592.22;;;6.48;100.00
38912;BME280;28444;48.056;14.408;2023-11-22T00:15:39;97588.91;;;6.42;100.00
38912;BME280;28444;48.056;14.408;2023-11-22T00:18:05;97596.63;;;6.30;100.00
38912;BME280;28444;48.056;14.408;2023-11-22T00:20:32;97594.19;;;6.19;100.00
38912;BME280;28444;48.056;14.408;2023-11-22T00:23:00;97602.06;;;6.09;100.00
38912;BME280;28444;48.056;14.408;2023-11-22T00:25:26;97603.06;;;6.19;100.00
38912;BME280;28444;48.056;14.408;2023-11-22T00:27:53;97600.66;;;6.16;100.00
38912;BME280;28444;48.056;14.408;2023-11-22T00:30:20;97601.53;;;6.11;100.00
38912;BME280;28444;48.056;14.408;2023-11-22T00:32:46;97600.88;;;6.18;100.00
38912;BME280;28444;48.056;14.408;2023-11-22T00:35:13;97610.59;;;6.13;100.00
38912;BME280;28444;48.056;14.408;2023-11-22T00:37:40;97606.25;;;6.10;100.00
38912;BME280;28444;48.056;14.408;2023-11-22T00:40:07;97616.63;;;6.19;100.00
38912;BME280;28444;48.056;14.408;2023-11-22T00:42:38;97619.94;;;6.05;100.00
38912;BME280;28444;48.056;14.408;2023-11-22T00:45:06;97621.94;;;6.04;100.00
38912;BME280;28444;48.056;14.408;2023-11-22T00:47:33;97625.16;;;6.02;100.00
38912;BME280;28444;48.056;14.408;2023-11-22T00:50:00;97622.22;;;6.14;100.00
38912;BME280;28444;48.056;14.408;2023-11-22T00:52:28;97616.34;;;6.10;100.00
38912;BME280;28444;48.056;14.408;2023-11-22T00:54:55;97631.09;;;6.14;100.00
38912;BME280;28444;48.056;14.408;2023-11-22T00:57:21;97632.00;;;6.17;100.00
38912;BME280;28444;48.056;14.408;2023-11-22T00:59:48;97631.59;;;6.13;100.00
38912;BME280;28444;48.056;14.408;2023-11-22T01:02:16;97625.31;;;6.18;100.00
38912;BME280;28444;48.056;14.408;2023-11-22T01:04:43;97627.16;;;6.23;100.00
38912;BME280;28444;48.056;14.408;2023-11-22T01:07:09;97626.69;;;6.32;100.00
38912;BME280;28444;48.056;14.408;2023-11-22T01:09:36;97632.59;;;6.23;100.00
38912;BME280;28444;48.056;14.408;2023-11-22T01:12:03;97639.06;;;6.20;100.00
38912;BME280;28444;48.056;14.408;2023-11-22T01:14:30;97637.84;;;6.21;100.00
38912;BME280;28444;48.056;14.408;2023-11-22T01:16:57;97637.84;;;6.21;100.00
38912;BME280;28444;48.056;14.408;2023-11-22T01:19:24;97642.94;;;6.03;100.00
38912;BME280;28444;48.056;14.408;2023-11-22T01:21:52;97636.09;;;5.76;100.00
38912;BME280;28444;48.056;14.408;2023-11-22T01:24:19;97637.22;;;5.60;100.00
38912;BME280;28444;48.056;14.408;2023-11-22T01:26:45;97639.94;;;5.46;100.00
38912;BME280;28444;48.056;14.408;2023-11-22T01:29:12;97645.53;;;5.62;100.00
38912;BME280;28444;48.056;14.408;2023-11-22T01:31:39;97644.41;;;5.57;100.00
38912;BME280;28444;48.056;14.408;2023-11-22T01:34:06;97647.88;;;5.44;100.00
38912;BME280;28444;48.056;14.408;2023-11-22T01:36:35;97647.88;;;5.44;100.00
38912;BME280;28444;48.056;14.408;2023-11-22T01:39:02;97658.94;;;5.46;100.00
38912;BME280;28444;48.056;14.408;2023-11-22T01:41:29;97662.38;;;5.47;100.00
38912;BME280;28444;48.056;14.408;2023-11-22T01:43:56;97665.41;;;5.30;100.00
38912;BME280;28444;48.056;14.408;2023-11-22T01:46:25;97662.50;;;5.41;100.00
38912;BME280;28444;48.056;14.408;2023-11-22T01:48:53;97655.69;;;5.48;100.00
38912;BME280;28444;48.056;14.408;2023-11-22T01:51:21;97662.19;;;5.45;100.00
38912;BME280;28444;48.056;14.408;2023-11-22T01:53:48;97668.13;;;5.30;100.00
38912;BME280;28444;48.056;14.408;2023-11-22T01:56:16;97673.56;;;5.30;100.00
38912;BME280;28444;48.056;14.408;2023-11-22T01:58:44;97672.13;;;5.16;100.00
38912;BME280;28444;48.056;14.408;2023-11-22T02:01:12;97674.41;;;5.25;100.00
38912;BME280;28444;48.056;14.408;2023-11-22T02:03:39;97680.56;;;5.12;100.00
38912;BME280;28444;48.056;14.408;2023-11-22T02:06:06;97681.38;;;5.07;100.00
38912;BME280;28444;48.056;14.408;2023-11-22T02:08:34;97681.69;;;5.03;100.00
38912;BME280;28444;48.056;14.408;2023-11-22T02:11:01;97680.44;;;5.04;100.00
38912;BME280;28444;48.056;14.408;2023-11-22T02:13:32;97680.31;;;4.70;99.35
38912;BME280;28444;48.056;14.408;2023-11-22T02:15:59;97686.47;;;4.71;99.21
38912;BME280;28444;48.056;14.408;2023-11-22T02:18:29;97684.38;;;4.64;98.34
38912;BME280;28444;48.056;14.408;2023-11-22T02:20:56;97689.91;;;4.58;97.62
38912;BME280;28444;48.056;14.408;2023-11-22T02:23:23;97699.59;;;4.67;100.00
38912;BME280;28444;48.056;14.408;2023-11-22T02:25:49;97696.47;;;4.63;96.29
38912;BME280;28444;48.056;14.408;2023-11-22T02:28:16;97708.75;;;4.64;97.74
38912;BME280;28444;48.056;14.408;2023-11-22T02:30:43;97706.56;;;4.62;98.65
38912;BME280;28444;48.056;14.408;2023-11-22T02:33:09;97707.63;;;4.72;100.00
38912;BME280;28444;48.056;14.408;2023-11-22T02:35:36;97699.09;;;4.81;100.00
38912;BME280;28444;48.056;14.408;2023-11-22T02:38:03;97707.56;;;4.91;98.99
38912;BME280;28444;48.056;14.408;2023-11-22T02:40:30;97707.13;;;4.74;93.92
38912;BME280;28444;48.056;14.408;2023-11-22T02:42:56;97715.44;;;4.63;94.49
38912;BME280;28444;48.056;14.408;2023-11-22T02:45:29;97722.91;;;4.56;94.95
38912;BME280;28444;48.056;14.408;2023-11-22T02:47:56;97721.03;;;4.51;95.10
38912;BME280;28444;48.056;14.408;2023-11-22T02:50:22;97727.84;;;4.39;93.36
38912;BME280;28444;48.056;14.408;2023-11-22T02:52:49;97723.78;;;4.32;94.29
38912;BME280;28444;48.056;14.408;2023-11-22T02:55:16;97729.81;;;4.39;95.32
38912;BME280;28444;48.056;14.408;2023-11-22T02:57:43;97739.81;;;4.30;92.88
38912;BME280;28444;48.056;14.408;2023-11-22T03:00:10;97744.31;;;4.41;94.60
38912;BME280;28444;48.056;14.408;2023-11-22T03:02:41;97751.28;;;4.37;92.28
38912;BME280;28444;48.056;14.408;2023-11-22T03:05:08;97752.69;;;4.43;92.82
38912;BME280;28444;48.056;14.408;2023-11-22T03:07:54;97750.34;;;4.34;93.76
38912;BME280;28444;48.056;14.408;2023-11-22T03:10:21;97754.13;;;4.44;93.42
38912;BME280;28444;48.056;14.408;2023-11-22T03:12:47;97749.56;;;4.52;94.78
38912;BME280;28444;48.056;14.408;2023-11-22T03:15:14;97752.94;;;4.58;90.54
38912;BME280;28444;48.056;14.408;2023-11-22T03:17:41;97760.75;;;4.30;91.33
38912;BME280;28444;48.056;14.408;2023-11-22T03:20:08;97761.47;;;4.30;94.29
38912;BME280;28444;48.056;14.408;2023-11-22T03:22:38;97778.81;;;4.41;91.59
38912;BME280;28444;48.056;14.408;2023-11-22T03:25:05;97779.75;;;4.24;90.68
38912;BME280;28444;48.056;14.408;2023-11-22T03:27:33;97786.81;;;4.14;91.01
38912;BME280;28444;48.056;14.408;2023-11-22T03:29:59;97795.28;;;4.24;92.58
38912;BME280;28444;48.056;14.408;2023-11-22T03:32:26;97799.16;;;4.09;90.48
38912;BME280;28444;48.056;14.408;2023-11-22T03:34:53;97792.28;;;4.08;89.79
38912;BME280;28444;48.056;14.408;2023-11-22T03:37:19;97807.34;;;4.04;92.69
38912;BME280;28444;48.056;14.408;2023-11-22T03:39:46;97802.59;;;4.10;93.75
38912;BME280;28444;48.056;14.408;2023-11-22T03:42:15;97809.69;;;4.13;89.43
38912;BME280;28444;48.056;14.408;2023-11-22T03:44:45;97808.94;;;3.94;90.03
38912;BME280;28444;48.056;14.408;2023-11-22T03:47:13;97811.94;;;3.90;89.24
38912;BME280;28444;48.056;14.408;2023-11-22T03:49:40;97812.13;;;3.73;89.38
38912;BME280;28444;48.056;14.408;2023-11-22T03:52:07;97822.66;;;3.77;88.50
38912;BME280;28444;48.056;14.408;2023-11-22T03:54:34;97817.38;;;3.66;89.45
38912;BME280;28444;48.056;14.408;2023-11-22T03:57:02;97814.97;;;3.62;90.33
38912;BME280;28444;48.056;14.408;2023-11-22T03:59:28;97817.81;;;3.70;91.86
38912;BME280;28444;48.056;14.408;2023-11-22T04:01:56;97835.47;;;3.76;92.42
38912;BME280;28444;48.056;14.408;2023-11-22T04:04:23;97834.06;;;3.70;89.90
38912;BME280;28444;48.056;14.408;2023-11-22T04:06:50;97843.13;;;3.48;91.67
38912;BME280;28444;48.056;14.408;2023-11-22T04:09:16;97844.78;;;3.56;92.77
38912;BME280;28444;48.056;14.408;2023-11-22T04:11:43;97843.13;;;3.48;93.55
38912;BME280;28444;48.056;14.408;2023-11-22T04:14:10;97850.22;;;3.51;92.91
38912;BME280;28444;48.056;14.408;2023-11-22T04:16:37;97850.78;;;3.44;93.72
38912;BME280;28444;48.056;14.408;2023-11-22T04:19:04;97855.38;;;3.54;95.33
38912;BME280;28444;48.056;14.408;2023-11-22T04:21:31;97854.81;;;3.61;96.97
38912;BME280;28444;48.056;14.408;2023-11-22T04:23:58;97866.47;;;3.75;95.65
38912;BME280;28444;48.056;14.408;2023-11-22T04:26:25;97869.50;;;3.66;94.45
38912;BME280;28444;48.056;14.408;2023-11-22T04:28:52;97875.47;;;3.83;96.76
38912;BME280;28444;48.056;14.408;2023-11-22T04:31:18;97868.09;;;3.84;96.31
38912;BME280;28444;48.056;14.408;2023-11-22T04:33:45;97875.16;;;3.93;96.61
38912;BME280;28444;48.056;14.408;2023-11-22T04:36:12;97877.91;;;3.87;94.52
38912;BME280;28444;48.056;14.408;2023-11-22T04:38:38;97886.25;;;3.89;95.12
38912;BME280;28444;48.056;14.408;2023-11-22T04:41:05;97883.75;;;3.91;94.67
38912;BME280;28444;48.056;14.408;2023-11-22T04:43:32;97893.41;;;3.62;91.52
38912;BME280;28444;48.056;14.408;2023-11-22T04:45:58;97893.47;;;3.56;90.76
38912;BME280;28444;48.056;14.408;2023-11-22T04:48:25;97897.28;;;3.42;91.53
38912;BME280;28444;48.056;14.408;2023-11-22T04:50:52;97903.06;;;3.27;93.16
38912;BME280;28444;48.056;14.408;2023-11-22T04:53:19;97906.81;;;3.49;95.75
38912;BME280;28444;48.056;14.408;2023-11-22T04:55:45;97917.13;;;3.50;90.19
38912;BME280;28444;48.056;14.408;2023-11-22T04:58:12;97919.03;;;3.25;90.54
38912;BME280;28444;48.056;14.408;2023-11-22T05:00:38;97924.53;;;3.14;92.07
38912;BME280;28444;48.056;14.408;2023-11-22T05:03:05;97929.28;;;3.02;92.25
38912;BME280;28444;48.056;14.408;2023-11-22T05:05:33;97919.94;;;3.03;92.85
38912;BME280;28444;48.056;14.408;2023-11-22T05:07:59;97921.63;;;3.06;91.94
38912;BME280;28444;48.056;14.408;2023-11-22T05:10:26;97922.44;;;2.96;91.36
38912;BME280;28444;48.056;14.408;2023-11-22T05:12:53;97921.00;;;2.89;91.87
38912;BME280;28444;48.056;14.408;2023-11-22T05:15:21;97922.28;;;2.82;91.24
38912;BME280;28444;48.056;14.408;2023-11-22T05:17:48;97926.94;;;2.82;91.92
38912;BME280;28444;48.056;14.408;2023-11-22T05:20:15;97930.16;;;2.80;91.38
38912;BME280;28444;48.056;14.408;2023-11-22T05:22:42;97927.25;;;2.73;91.27
38912;BME280;28444;48.056;14.408;2023-11-22T05:25:08;97933.13;;;2.77;91.94
38912;BME280;28444;48.056;14.408;2023-11-22T05:27:35;97934.41;;;2.64;91.85
38912;BME280;28444;48.056;14.408;2023-11-22T05:30:02;97939.34;;;2.60;93.00
38912;BME280;28444;48.056;14.408;2023-11-22T05:32:29;97945.97;;;2.59;93.57
38912;BME280;28444;48.056;14.408;2023-11-22T05:34:57;97954.78;;;2.65;93.21
38912;BME280;28444;48.056;14.408;2023-11-22T05:37:24;97960.47;;;2.56;93.18
38912;BME280;28444;48.056;14.408;2023-11-22T05:39:52;97957.75;;;2.56;93.88
38912;BME280;28444;48.056;14.408;2023-11-22T05:42:19;97969.50;;;2.64;94.12
38912;BME280;28444;48.056;14.408;2023-11-22T05:44:46;97974.91;;;2.64;94.34
38912;BME280;28444;48.056;14.408;2023-11-22T05:47:12;97974.63;;;2.74;93.77
38912;BME280;28444;48.056;14.408;2023-11-22T05:49:40;97979.03;;;2.77;93.67
38912;BME280;28444;48.056;14.408;2023-11-22T05:52:06;97980.91;;;2.93;93.53
38912;BME280;28444;48.056;14.408;2023-11-22T05:54:33;97982.63;;;2.96;91.52
38912;BME280;28444;48.056;14.408;2023-11-22T05:57:00;97989.00;;;2.93;92.01
38912;BME280;28444;48.056;14.408;2023-11-22T05:59:27;97988.53;;;2.95;91.58
38912;BME280;28444;48.056;14.408;2023-11-22T06:01:54;97995.69;;;2.86;90.90
38912;BME280;28444;48.056;14.408;2023-11-22T06:04:20;97995.19;;;2.88;91.02
38912;BME280;28444;48.056;14.408;2023-11-22T06:06:47;97995.66;;;2.92;92.69
38912;BME280;28444;48.056;14.408;2023-11-22T06:09:14;98004.91;;;3.08;91.54
38912;BME280;28444;48.056;14.408;2023-11-22T06:11:41;98011.75;;;3.14;91.93
38912;BME280;28444;48.056;14.408;2023-11-22T06:14:08;98016.88;;;3.24;90.21
38912;BME280;28444;48.056;14.408;2023-11-22T06:16:34;98020.16;;;3.05;89.52
38912;BME280;28444;48.056;14.408;2023-11-22T06:19:01;98028.09;;;2.86;90.28
38912;BME280;28444;48.056;14.408;2023-11-22T06:21:27;98037.44;;;2.91;89.95
38912;BME280;28444;48.056;14.408;2023-11-22T06:23:54;98046.78;;;2.84;91.98
38912;BME280;28444;48.056;14.408;2023-11-22T06:26:24;98043.81;;;2.88;91.24
38912;BME280;28444;48.056;14.408;2023-11-22T06:28:51;98051.44;;;2.84;90.88
38912;BME280;28444;48.056;14.408;2023-11-22T06:31:18;98053.84;;;2.93;89.65
38912;BME280;28444;48.056;14.408;2023-11-22T06:33:45;98064.66;;;2.93;90.39
38912;BME280;28444;48.056;14.408;2023-11-22T06:36:12;98063.47;;;2.94;90.51
38912;BME280;28444;48.056;14.408;2023-11-22T06:38:41;98064.66;;;2.99;90.29
38912;BME280;28444;48.056;14.408;2023-11-22T06:41:07;98071.50;;;3.05;88.90
38912;BME280;28444;48.056;14.408;2023-11-22T06:43:34;98074.22;;;3.00;87.49
38912;BME280;28444;48.056;14.408;2023-11-22T06:46:01;98079.66;;;2.94;88.98
38912;BME280;28444;48.056;14.408;2023-11-22T06:48:32;98072.31;;;2.89;90.72
38912;BME280;28444;48.056;14.408;2023-11-22T06:51:00;98086.31;;;2.82;90.04
38912;BME280;28444;48.056;14.408;2023-11-22T06:53:27;98098.66;;;2.66;89.82
38912;BME280;28444;48.056;14.408;2023-11-22T06:55:54;98103.81;;;2.70;90.22
38912;BME280;28444;48.056;14.408;2023-11-22T06:58:21;98101.63;;;2.62;91.58
38912;BME280;28444;48.056;14.408;2023-11-22T07:00:48;98114.66;;;2.41;93.41
38912;BME280;28444;48.056;14.408;2023-11-22T07:03:15;98113.91;;;2.47;92.69
38912;BME280;28444;48.056;14.408;2023-11-22T07:05:43;98114.91;;;2.44;93.45
38912;BME280;28444;48.056;14.408;2023-11-22T07:08:10;98122.50;;;2.45;94.46
38912;BME280;28444;48.056;14.408;2023-11-22T07:10:37;98132.81;;;2.52;93.04
38912;BME280;28444;48.056;14.408;2023-11-22T07:13:04;98135.25;;;2.50;93.71
38912;BME280;28444;48.056;14.408;2023-11-22T07:15:31;98147.06;;;2.41;93.83
38912;BME280;28444;48.056;14.408;2023-11-22T07:17:58;98161.28;;;2.31;94.70
38912;BME280;28444;48.056;14.408;2023-11-22T07:20:25;98151.47;;;2.33;93.89
38912;BME280;28444;48.056;14.408;2023-11-22T07:22:53;98157.84;;;2.30;94.40
38912;BME280;28444;48.056;14.408;2023-11-22T07:25:24;98154.66;;;2.26;95.30
38912;BME280;28444;48.056;14.408;2023-11-22T07:27:51;98152.19;;;2.28;95.23
38912;BME280;28444;48.056;14.408;2023-11-22T07:30:19;98155.16;;;2.30;95.14
38912;BME280;28444;48.056;14.408;2023-11-22T07:32:46;98152.22;;;2.23;96.02
38912;BME280;28444;48.056;14.408;2023-11-22T07:35:13;98161.56;;;2.22;96.27
38912;BME280;28444;48.056;14.408;2023-11-22T07:37:40;98158.59;;;2.25;95.62
38912;BME280;28444;48.056;14.408;2023-11-22T07:40:09;98177.72;;;2.16;96.00
38912;BME280;28444;48.056;14.408;2023-11-22T07:42:36;98182.88;;;2.14;96.54
38912;BME280;28444;48.056;14.408;2023-11-22T07:45:03;98182.34;;;1.99;98.06
38912;BME280;28444;48.056;14.408;2023-11-22T07:47:30;98191.16;;;1.88;99.56
38912;BME280;28444;48.056;14.408;2023-11-22T07:49:57;98190.19;;;1.80;100.00
38912;BME280;28444;48.056;14.408;2023-11-22T07:52:24;98197.28;;;1.77;100.00
38912;BME280;28444;48.056;14.408;2023-11-22T07:54:56;98200.22;;;1.79;100.00
38912;BME280;28444;48.056;14.408;2023-11-22T07:57:23;98202.66;;;1.77;100.00
38912;BME280;28444;48.056;14.408;2023-11-22T07:59:50;98206.63;;;1.82;100.00
38912;BME280;28444;48.056;14.408;2023-11-22T08:02:18;98214.66;;;1.71;100.00
38912;BME280;28444;48.056;14.408;2023-11-22T08:04:45;98209.50;;;1.61;100.00
38912;BME280;28444;48.056;14.408;2023-11-22T08:07:14;98204.59;;;1.60;100.00
38912;BME280;28444;48.056;14.408;2023-11-22T08:09:44;98202.88;;;1.57;100.00
38912;BME280;28444;48.056;14.408;2023-11-22T08:12:11;98208.03;;;1.66;100.00
38912;BME280;28444;48.056;14.408;2023-11-22T08:14:37;98213.13;;;1.47;100.00
38912;BME280;28444;48.056;14.408;2023-11-22T08:17:04;98222.25;;;1.66;100.00
38912;BME280;28444;48.056;14.408;2023-11-22T08:19:32;98220.59;;;1.91;100.00
38912;BME280;28444;48.056;14.408;2023-11-22T08:21:59;98228.97;;;1.93;100.00
38912;BME280;28444;48.056;14.408;2023-11-22T08:24:26;98225.06;;;2.00;100.00
38912;BME280;28444;48.056;14.408;2023-11-22T08:26:53;98231.19;;;2.06;100.00
38912;BME280;28444;48.056;14.408;2023-11-22T08:29:19;98228.25;;;2.10;100.00
38912;BME280;28444;48.056;14.408;2023-11-22T08:31:46;98226.31;;;2.38;100.00
38912;BME280;28444;48.056;14.408;2023-11-22T08:34:14;98242.78;;;2.63;100.00
38912;BME280;28444;48.056;14.408;2023-11-22T08:36:42;98231.47;;;2.76;100.00
38912;BME280;28444;48.056;14.408;2023-11-22T08:39:08;98252.09;;;2.68;100.00
38912;BME280;28444;48.056;14.408;2023-11-22T08:41:35;98249.16;;;2.77;100.00
38912;BME280;28444;48.056;14.408;2023-11-22T08:44:01;98249.16;;;2.82;100.00
38912;BME280;28444;48.056;14.408;2023-11-22T08:46:28;98256.75;;;2.89;100.00
38912;BME280;28444;48.056;14.408;2023-11-22T08:48:55;98254.03;;;3.01;100.00
38912;BME280;28444;48.056;14.408;2023-11-22T08:51:23;98259.44;;;3.06;100.00
38912;BME280;28444;48.056;14.408;2023-11-22T08:53:49;98270.22;;;3.29;100.00
38912;BME280;28444;48.056;14.408;2023-11-22T08:56:16;98262.06;;;3.40;100.00
38912;BME280;28444;48.056;14.408;2023-11-22T08:58:44;98265.53;;;3.29;99.85
38912;BME280;28444;48.056;14.408;2023-11-22T09:01:10;98262.38;;;3.08;98.67
38912;BME280;28444;48.056;14.408;2023-11-22T09:03:37;98271.50;;;3.05;99.34
38912;BME280;28444;48.056;14.408;2023-11-22T09:06:04;98277.13;;;3.07;99.79
38912;BME280;28444;48.056;14.408;2023-11-22T09:08:34;98281.53;;;3.22;99.82
38912;BME280;28444;48.056;14.408;2023-11-22T09:11:02;98298.22;;;3.26;99.35
38912;BME280;28444;48.056;14.408;2023-11-22T09:13:33;98303.63;;;3.37;100.00
38912;BME280;28444;48.056;14.408;2023-11-22T09:16:01;98292.06;;;3.36;99.42
38912;BME280;28444;48.056;14.408;2023-11-22T09:18:31;98300.44;;;3.38;99.49
38912;BME280;28444;48.056;14.408;2023-11-22T09:20:59;98301.16;;;3.39;98.80
38912;BME280;28444;48.056;14.408;2023-11-22T09:23:25;98315.41;;;3.34;97.50
38912;BME280;28444;48.056;14.408;2023-11-22T09:25:53;98324.25;;;3.40;98.13
38912;BME280;28444;48.056;14.408;2023-11-22T09:28:20;98326.47;;;3.47;98.77
38912;BME280;28444;48.056;14.408;2023-11-22T09:30:47;98330.38;;;3.52;98.72
38912;BME280;28444;48.056;14.408;2023-11-22T09:33:15;98335.34;;;3.42;96.46
38912;BME280;28444;48.056;14.408;2023-11-22T09:35:43;98341.72;;;3.33;96.06
38912;BME280;28444;48.056;14.408;2023-11-22T09:38:11;98339.25;;;3.47;96.77
38912;BME280;28444;48.056;14.408;2023-11-22T09:40:43;98356.97;;;3.42;96.83
38912;BME280;28444;48.056;14.408;2023-11-22T09:43:11;98346.13;;;3.48;97.14
38912;BME280;28444;48.056;14.408;2023-11-22T09:45:38;98342.47;;;3.45;95.58
38912;BME280;28444;48.056;14.408;2023-11-22T09:50:56;98328.94;;;3.45;95.48
38912;BME280;28444;48.056;14.408;2023-11-22T09:53:34;98325.00;;;3.46;95.08
38912;BME280;28444;48.056;14.408;2023-11-22T09:56:03;98314.41;;;3.48;94.74
38912;BME280;28444;48.056;14.408;2023-11-22T09:58:31;98321.78;;;3.53;95.93
38912;BME280;28444;48.056;14.408;2023-11-22T10:01:00;98321.31;;;3.44;91.46
38912;BME280;28444;48.056;14.408;2023-11-22T10:03:27;98325.72;;;3.41;94.51
38912;BME280;28444;48.056;14.408;2023-11-22T10:05:58;98313.44;;;3.40;93.56
38912;BME280;28444;48.056;14.408;2023-11-22T10:08:26;98319.03;;;3.59;95.29
38912;BME280;28444;48.056;14.408;2023-11-22T10:10:54;98329.66;;;3.51;87.43
38912;BME280;28444;48.056;14.408;2023-11-22T10:13:21;98321.31;;;3.49;84.59
38912;BME280;28444;48.056;14.408;2023-11-22T10:15:49;98336.09;;;3.09;85.52
38912;BME280;28444;48.056;14.408;2023-11-22T10:18:17;98331.69;;;2.95;87.48
38912;BME280;28444;48.056;14.408;2023-11-22T10:20:49;98349.13;;;2.77;88.44
38912;BME280;28444;48.056;14.408;2023-11-22T10:23:17;98341.00;;;2.65;87.38
38912;BME280;28444;48.056;14.408;2023-11-22T10:25:52;98346.16;;;2.58;89.34
38912;BME280;28444;48.056;14.408;2023-11-22T10:28:19;98346.38;;;2.49;88.08
38912;BME280;28444;48.056;14.408;2023-11-22T10:30:48;98346.81;;;2.36;87.71
38912;BME280;28444;48.056;14.408;2023-11-22T10:33:16;98344.88;;;2.36;86.69
38912;BME280;28444;48.056;14.408;2023-11-22T10:35:47;98351.25;;;2.33;87.75
38912;BME280;28444;48.056;14.408;2023-11-22T10:38:18;98354.94;;;2.41;86.37
38912;BME280;28444;48.056;14.408;2023-11-22T10:40:46;98359.09;;;2.42;88.77
38912;BME280;28444;48.056;14.408;2023-11-22T10:43:15;98357.44;;;2.51;90.35
38912;BME280;28444;48.056;14.408;2023-11-22T10:45:44;98355.50;;;2.74;90.84
38912;BME280;28444;48.056;14.408;2023-11-22T10:48:15;98359.66;;;2.75;88.63
38912;BME280;28444;48.056;14.408;2023-11-22T10:50:46;98369.28;;;2.98;87.81
38912;BME280;28444;48.056;14.408;2023-11-22T10:53:20;98366.81;;;3.00;85.92
38912;BME280;28444;48.056;14.408;2023-11-22T10:55:49;98364.34;;;3.08;86.31
38912;BME280;28444;48.056;14.408;2023-11-22T10:58:19;98374.69;;;2.98;85.62
38912;BME280;28444;48.056;14.408;2023-11-22T11:00:47;98379.59;;;3.00;85.64
38912;BME280;28444;48.056;14.408;2023-11-22T11:03:18;98377.38;;;3.15;85.91
38912;BME280;28444;48.056;14.408;2023-11-22T11:05:58;98379.81;;;2.96;85.16
38912;BME280;28444;48.056;14.408;2023-11-22T11:08:25;98389.16;;;3.12;85.41
38912;BME280;28444;48.056;14.408;2023-11-22T11:10:54;98393.09;;;2.94;85.64
38912;BME280;28444;48.056;14.408;2023-11-22T11:13:25;98393.34;;;3.02;90.23
38912;BME280;28444;48.056;14.408;2023-11-22T11:15:53;98400.47;;;3.22;88.75
38912;BME280;28444;48.056;14.408;2023-11-22T11:18:20;98407.34;;;3.40;89.90
38912;BME280;28444;48.056;14.408;2023-11-22T11:20:52;98416.66;;;3.55;84.21
38912;BME280;28444;48.056;14.408;2023-11-22T11:23:21;98416.44;;;3.53;84.41
38912;BME280;28444;48.056;14.408;2023-11-22T11:25:56;98412.50;;;3.66;81.81
38912;BME280;28444;48.056;14.408;2023-11-22T11:28:24;98420.84;;;3.62;82.47
38912;BME280;28444;48.056;14.408;2023-11-22T11:30:54;98421.38;;;3.44;82.14
38912;BME280;28444;48.056;14.408;2023-11-22T11:33:27;98422.59;;;3.54;84.20
38912;BME280;28444;48.056;14.408;2023-11-22T11:35:56;98429.22;;;3.47;83.51
38912;BME280;28444;48.056;14.408;2023-11-22T11:38:30;98430.44;;;3.52;83.78
38912;BME280;28444;48.056;14.408;2023-11-22T11:41:12;98435.88;;;3.46;85.24
38912;BME280;28444;48.056;14.408;2023-11-22T11:43:44;98429.00;;;3.45;81.46
38912;BME280;28444;48.056;14.408;2023-11-22T11:46:17;98422.34;;;3.52;83.79
38912;BME280;28444;48.056;14.408;2023-11-22T11:48:48;98419.63;;;3.74;83.50
38912;BME280;28444;48.056;14.408;2023-11-22T11:51:16;98421.84;;;3.53;80.47
38912;BME280;28444;48.056;14.408;2023-11-22T11:53:44;98434.91;;;3.49;82.48
38912;BME280;28444;48.056;14.408;2023-11-22T11:56:12;98434.16;;;3.49;83.02
38912;BME280;28444;48.056;14.408;2023-11-22T11:58:41;98439.81;;;3.40;83.44
38912;BME280;28444;48.056;14.408;2023-11-22T12:01:08;98436.59;;;3.35;82.45
38912;BME280;28444;48.056;14.408;2023-11-22T12:03:36;98438.81;;;3.31;82.52
38912;BME280;28444;48.056;14.408;2023-11-22T12:06:03;98434.16;;;3.49;84.44
38912;BME280;28444;48.056;14.408;2023-11-22T12:08:30;98436.13;;;3.59;84.15
38912;BME280;28444;48.056;14.408;2023-11-22T12:11:03;98431.44;;;3.54;80.94
38912;BME280;28444;48.056;14.408;2023-11-22T12:13:31;98435.88;;;3.57;79.68
38912;BME280;28444;48.056;14.408;2023-11-22T12:15:58;98428.00;;;3.71;78.76
38912;BME280;28444;48.056;14.408;2023-11-22T12:18:25;98426.00;;;3.66;80.20
38912;BME280;28444;48.056;14.408;2023-11-22T12:20:59;98429.47;;;3.72;79.77
38912;BME280;28444;48.056;14.408;2023-11-22T12:23:27;98430.41;;;3.80;80.49
38912;BME280;28444;48.056;14.408;2023-11-22T12:25:55;98438.53;;;3.80;80.04
38912;BME280;28444;48.056;14.408;2023-11-22T12:28:24;98451.59;;;3.65;80.19
38912;BME280;28444;48.056;14.408;2023-11-22T12:30:52;98447.41;;;3.58;80.50
38912;BME280;28444;48.056;14.408;2023-11-22T12:33:20;98447.41;;;3.58;81.28
38912;BME280;28444;48.056;14.408;2023-11-22T12:35:48;98444.97;;;3.60;82.02
38912;BME280;28444;48.056;14.408;2023-11-22T12:38:15;98451.31;;;3.74;81.79
38912;BME280;28444;48.056;14.408;2023-11-22T12:40:44;98452.31;;;3.76;82.94
38912;BME280;28444;48.056;14.408;2023-11-22T12:43:12;98448.13;;;3.92;83.32
38912;BME280;28444;48.056;14.408;2023-11-22T12:45:40;98432.13;;;3.94;79.08
38912;BME280;28444;48.056;14.408;2023-11-22T12:48:28;98417.38;;;3.90;78.92
38912;BME280;28444;48.056;14.408;2023-11-22T12:50:59;98422.06;;;3.89;81.07
38912;BME280;28444;48.056;14.408;2023-11-22T12:53:27;98420.06;;;3.84;78.33
38912;BME280;28444;48.056;14.408;2023-11-22T12:55:57;98425.97;;;3.88;79.26
38912;BME280;28444;48.056;14.408;2023-11-22T12:58:25;98423.00;;;3.97;78.27
38912;BME280;28444;48.056;14.408;2023-11-22T13:00:53;98422.28;;;3.97;77.08
38912;BME280;28444;48.056;14.408;2023-11-22T13:03:25;98437.31;;;3.81;76.77